createdAt,value
2022-12-14T00:01:32.057Z,10.30
2022-12-14T00:03:58.861Z,10.38
2022-12-14T00:06:28.695Z,11.35
2022-12-14T00:08:58.193Z,10.90
2022-12-14T00:11:25.834Z,10.30
2022-12-14T00:13:56.896Z,10.13
2022-12-14T00:16:25.543Z,9.40
2022-12-14T00:18:54.606Z,9.38
2022-12-14T00:21:22.365Z,9.13
2022-12-14T00:23:51.411Z,8.95
2022-12-14T00:26:23.755Z,8.45
2022-12-14T00:28:52.773Z,8.82
2022-12-14T00:31:21.035Z,7.70
2022-12-14T00:33:48.322Z,7.90
2022-12-14T00:36:15.157Z,7.78
2022-12-14T00:38:42.300Z,8.27
2022-12-14T00:43:36.541Z,7.80
2022-12-14T00:46:03.503Z,6.88
2022-12-14T00:48:31.548Z,7.20
2022-12-14T00:50:58.818Z,6.50
2022-12-14T00:53:25.839Z,7.32
2022-12-14T00:55:52.974Z,7.22
2022-12-14T00:58:21.869Z,6.40
2022-12-14T01:01:05.613Z,6.53
2022-12-14T01:03:33.485Z,6.28
2022-12-14T01:06:00.652Z,6.22
2022-12-14T01:08:35.462Z,7.22
2022-12-14T01:11:09.935Z,6.28
2022-12-14T01:13:38.311Z,6.50
2022-12-14T01:16:12.540Z,6.30
2022-12-14T01:18:41.470Z,7.40
2022-12-14T01:21:17.174Z,6.28
2022-12-14T01:23:45.390Z,5.95
2022-12-14T01:26:13.670Z,6.57
2022-12-14T01:28:41.208Z,6.18
2022-12-14T01:31:10.374Z,6.03
2022-12-14T01:33:37.872Z,6.43
2022-12-14T01:36:16.378Z,6.93
2022-12-14T01:38:43.784Z,6.93
2022-12-14T01:41:26.713Z,7.88
2022-12-14T01:44:02.586Z,7.55
2022-12-14T01:46:37.059Z,7.85
2022-12-14T01:49:15.045Z,7.95
2022-12-14T01:51:46.522Z,9.27
2022-12-14T01:54:15.459Z,9.38
2022-12-14T01:56:44.813Z,8.82
2022-12-14T01:59:18.811Z,7.97
2022-12-14T02:01:48.316Z,8.63
2022-12-14T02:04:18.131Z,8.57
2022-12-14T02:06:48.390Z,8.63
2022-12-14T02:09:23.231Z,7.95
2022-12-14T02:12:04.321Z,7.03
2022-12-14T02:14:31.174Z,7.30
2022-12-14T02:16:58.108Z,7.82
2022-12-14T02:19:25.022Z,7.82
2022-12-14T02:22:24.384Z,7.53
2022-12-14T02:25:09.252Z,6.93
2022-12-14T02:27:57.596Z,6.93
2022-12-14T02:30:28.555Z,6.85
2022-12-14T02:33:21.037Z,6.45
2022-12-14T02:35:53.392Z,5.80
2022-12-14T02:38:38.792Z,6.00
2022-12-14T02:41:08.259Z,6.20
2022-12-14T02:43:55.002Z,5.55
2022-12-14T02:46:39.004Z,5.05
2022-12-14T02:49:32.006Z,4.80
2022-12-14T02:52:07.596Z,5.18
2022-12-14T02:54:54.603Z,5.32
2022-12-14T02:57:48.068Z,5.72
2022-12-14T03:00:15.856Z,6.35
2022-12-14T03:02:44.702Z,6.82
2022-12-14T03:05:11.733Z,6.40
2022-12-14T03:07:55.137Z,6.75
2022-12-14T03:10:28.249Z,6.25
2022-12-14T03:13:17.750Z,5.53
2022-12-14T03:15:48.743Z,6.60
2022-12-14T03:18:18.767Z,6.00
2022-12-14T03:20:49.751Z,6.32
2022-12-14T03:23:22.744Z,6.13
2022-12-14T03:26:07.931Z,5.85
2022-12-14T03:28:47.341Z,6.03
2022-12-14T03:31:19.630Z,6.15
2022-12-14T03:33:48.533Z,6.07
2022-12-14T03:36:27.694Z,6.45
2022-12-14T03:38:58.720Z,5.85
2022-12-14T03:41:48.983Z,5.72
2022-12-14T03:44:25.226Z,5.47
2022-12-14T03:47:09.837Z,6.10
2022-12-14T03:50:01.580Z,6.22
2022-12-14T03:52:35.445Z,5.55
2022-12-14T03:55:20.308Z,6.30
2022-12-14T03:57:49.898Z,7.60
2022-12-14T04:00:22.508Z,8.32
2022-12-14T04:02:53.629Z,8.23
2022-12-14T04:05:31.387Z,8.35
2022-12-14T04:08:13.081Z,8.80
2022-12-14T04:11:10.606Z,9.48
2022-12-14T04:14:00.714Z,11.55
2022-12-14T04:16:53.794Z,12.50
2022-12-14T04:19:27.119Z,12.38
2022-12-14T04:22:02.925Z,13.13
2022-12-14T04:24:57.391Z,12.18
2022-12-14T04:27:47.925Z,15.70
2022-12-14T04:30:15.586Z,16.55
2022-12-14T04:33:21.617Z,18.08
2022-12-14T04:35:50.352Z,19.52
2022-12-14T04:38:23.624Z,19.95
2022-12-14T04:40:57.921Z,20.08
2022-12-14T04:43:29.553Z,20.85
2022-12-14T04:46:15.965Z,20.63
2022-12-14T04:48:56.205Z,19.27
2022-12-14T04:51:38.846Z,21.45
2022-12-14T04:54:19.634Z,21.85
2022-12-14T04:57:18.916Z,22.88
2022-12-14T04:59:46.846Z,18.17
2022-12-14T05:02:32.110Z,16.50
2022-12-14T05:05:35.291Z,14.00
2022-12-14T05:08:26.343Z,18.00
2022-12-14T05:11:49.724Z,18.95
2022-12-14T05:14:00.602Z,19.02
2022-12-14T05:16:27.486Z,17.80
2022-12-14T05:18:54.353Z,19.92
2022-12-14T05:21:39.925Z,21.00
2022-12-14T05:24:07.150Z,20.95
2022-12-14T05:26:34.315Z,20.88
2022-12-14T05:31:27.831Z,22.17
2022-12-14T05:33:54.636Z,22.30
2022-12-14T05:36:21.572Z,21.73
2022-12-14T05:38:48.350Z,22.58
2022-12-14T05:41:15.318Z,22.73
2022-12-14T05:43:42.367Z,23.77
2022-12-14T05:46:11.511Z,23.67
2022-12-14T05:48:38.538Z,22.05
2022-12-14T05:51:10.717Z,22.77
2022-12-14T05:53:39.056Z,21.92
2022-12-14T05:56:07.463Z,20.95
2022-12-14T05:58:35.416Z,22.23
2022-12-14T06:01:04.659Z,18.98
2022-12-14T06:03:31.627Z,20.95
2022-12-14T06:06:06.354Z,20.13
2022-12-14T06:08:35.064Z,21.63
2022-12-14T06:11:10.582Z,18.73
2022-12-14T06:13:39.029Z,19.85
2022-12-14T06:16:20.159Z,20.90
2022-12-14T06:18:48.380Z,21.55
2022-12-14T06:21:16.793Z,22.33
2022-12-14T06:23:43.783Z,22.13
2022-12-14T06:26:11.198Z,23.30
2022-12-14T06:28:38.633Z,23.75
2022-12-14T06:31:06.027Z,23.60
2022-12-14T06:33:35.953Z,23.88
2022-12-14T06:36:03.045Z,22.35
2022-12-14T06:38:30.101Z,24.10
2022-12-14T06:40:56.893Z,24.75
2022-12-14T06:43:26.981Z,23.50
2022-12-14T06:45:54.653Z,24.25
2022-12-14T06:48:21.593Z,24.23
2022-12-14T06:50:48.835Z,24.98
2022-12-14T06:55:42.504Z,24.02
2022-12-14T06:58:13.470Z,25.23
2022-12-14T07:00:40.478Z,24.58
2022-12-14T07:03:08.570Z,27.25
2022-12-14T07:05:35.532Z,26.17
2022-12-14T07:08:03.110Z,24.63
2022-12-14T07:10:29.851Z,22.90
2022-12-14T07:12:56.613Z,25.35
2022-12-14T07:15:23.334Z,25.23
2022-12-14T07:17:50.141Z,24.98
2022-12-14T07:20:16.989Z,25.35
2022-12-14T07:22:43.862Z,26.00
2022-12-14T07:25:16.147Z,25.80
2022-12-14T07:27:42.885Z,26.70
2022-12-14T07:30:10.316Z,26.10
2022-12-14T07:32:37.212Z,26.42
2022-12-14T07:35:04.413Z,26.15
2022-12-14T07:39:57.781Z,25.33
2022-12-14T07:42:24.478Z,26.08
2022-12-14T07:44:51.218Z,25.90
2022-12-14T07:47:17.938Z,22.70
2022-12-14T07:49:44.687Z,23.95
2022-12-14T07:52:11.530Z,24.42
2022-12-14T07:54:38.413Z,24.50
2022-12-14T07:57:05.159Z,23.75
2022-12-14T07:59:31.989Z,22.83
2022-12-14T08:01:58.883Z,23.10
2022-12-14T08:04:25.859Z,22.73
2022-12-14T08:06:52.719Z,21.70
2022-12-14T08:09:20.283Z,22.73
2022-12-14T08:11:47.639Z,22.90
2022-12-14T08:14:17.302Z,23.23
2022-12-14T08:16:45.326Z,21.52
2022-12-14T08:19:12.987Z,22.05
2022-12-14T08:21:40.807Z,22.85
2022-12-14T08:24:07.830Z,22.88
2022-12-14T08:26:35.924Z,23.27
2022-12-14T08:29:04.010Z,24.20
2022-12-14T08:31:31.602Z,23.95
2022-12-14T08:33:59.852Z,24.80
2022-12-14T08:36:29.619Z,24.70
2022-12-14T08:39:02.465Z,25.83
2022-12-14T08:41:29.483Z,24.95
2022-12-14T08:43:58.599Z,24.45
2022-12-14T08:46:28.114Z,24.50
2022-12-14T08:48:56.276Z,23.75
2022-12-14T08:51:24.534Z,23.52
2022-12-14T08:53:51.998Z,24.90
2022-12-14T08:56:21.640Z,23.45
2022-12-14T08:58:48.884Z,23.45
2022-12-14T09:03:45.276Z,22.48
2022-12-14T09:06:18.904Z,23.60
2022-12-14T09:08:47.185Z,23.63
2022-12-14T09:11:19.049Z,24.08
2022-12-14T09:13:46.696Z,23.92
2022-12-14T09:16:16.749Z,22.65
2022-12-14T09:18:44.919Z,23.85
2022-12-14T09:21:13.137Z,24.75
2022-12-14T09:23:40.751Z,24.42
2022-12-14T09:26:19.592Z,23.08
2022-12-14T09:28:56.751Z,22.65
2022-12-14T09:31:25.477Z,22.05
2022-12-14T09:33:52.542Z,22.00
2022-12-14T09:36:22.301Z,22.42
2022-12-14T09:38:55.226Z,21.85
2022-12-14T09:41:32.879Z,21.08
2022-12-14T09:44:18.195Z,21.33
2022-12-14T09:46:54.693Z,21.75
2022-12-14T09:49:40.545Z,20.42
2022-12-14T09:52:15.752Z,21.02
2022-12-14T09:54:44.395Z,19.88
2022-12-14T09:57:20.583Z,20.63
2022-12-14T09:59:47.339Z,20.90
2022-12-14T10:02:31.873Z,20.83
2022-12-14T10:05:02.091Z,20.02
2022-12-14T10:07:51.773Z,21.80
2022-12-14T10:10:52.228Z,21.00
2022-12-14T10:13:55.353Z,20.25
2022-12-14T10:16:27.994Z,20.80
2022-12-14T10:19:30.042Z,20.48
2022-12-14T10:22:25.736Z,20.08
2022-12-14T10:25:05.640Z,21.33
2022-12-14T10:30:23.651Z,19.92
2022-12-14T10:32:53.917Z,20.08
2022-12-14T10:35:34.364Z,20.42
2022-12-14T10:38:06.251Z,21.25
2022-12-14T10:40:35.241Z,19.90
2022-12-14T10:43:34.569Z,19.90
2022-12-14T10:49:16.751Z,19.27
2022-12-14T10:52:21.718Z,18.83
2022-12-14T10:54:58.402Z,17.95
2022-12-14T10:57:27.159Z,18.60
2022-12-14T11:00:11.147Z,21.15
2022-12-14T11:02:42.508Z,20.15
2022-12-14T11:05:36.618Z,20.02
2022-12-14T11:08:08.696Z,19.73
2022-12-14T11:10:41.396Z,17.75
2022-12-14T11:13:16.477Z,16.30
2022-12-14T11:15:50.991Z,15.32
2022-12-14T11:18:17.941Z,15.93
2022-12-14T11:21:03.165Z,16.23
2022-12-14T11:23:38.782Z,16.05
2022-12-14T11:26:13.091Z,16.10
2022-12-14T11:28:49.871Z,17.17
2022-12-14T11:31:24.970Z,16.45
2022-12-14T11:33:54.387Z,16.70
2022-12-14T11:36:41.787Z,16.48
2022-12-14T11:39:14.410Z,15.65
2022-12-14T11:41:47.033Z,15.05
2022-12-14T11:44:16.662Z,13.98
2022-12-14T11:46:58.461Z,13.82
2022-12-14T11:49:25.149Z,14.35
2022-12-14T11:52:05.605Z,14.02
2022-12-14T11:54:33.698Z,14.30
2022-12-14T11:57:08.624Z,13.20
2022-12-14T11:59:46.795Z,14.85
2022-12-14T12:02:40.793Z,14.30
2022-12-14T12:05:16.459Z,13.60
2022-12-14T12:08:07.402Z,13.27
2022-12-14T12:10:37.169Z,13.18
2022-12-14T12:13:07.248Z,14.55
2022-12-14T12:15:43.145Z,14.35
2022-12-14T12:18:34.772Z,12.73
2022-12-14T12:21:10.392Z,13.77
2022-12-14T12:24:09.331Z,12.98
2022-12-14T12:29:14.790Z,10.25
2022-12-14T12:31:55.087Z,9.85
2022-12-14T12:35:01.344Z,11.80
2022-12-14T12:37:58.767Z,12.38
2022-12-14T12:40:37.616Z,14.00
2022-12-14T12:43:30.047Z,13.23
2022-12-14T12:46:02.455Z,13.68
2022-12-14T12:48:36.229Z,14.35
2022-12-14T12:51:14.512Z,14.48
2022-12-14T12:53:44.021Z,15.13
2022-12-14T12:56:39.874Z,13.30
2022-12-14T12:59:07.774Z,14.02
2022-12-14T13:01:37.826Z,13.88
2022-12-14T13:04:10.992Z,13.50
2022-12-14T13:06:48.516Z,13.43
2022-12-14T13:09:27.522Z,14.75
2022-12-14T13:11:55.519Z,13.75
2022-12-14T13:14:33.913Z,13.27
2022-12-14T13:17:05.209Z,13.48
2022-12-14T13:19:54.404Z,13.05
2022-12-14T13:22:31.191Z,14.88
2022-12-14T13:25:03.492Z,11.70
2022-12-14T13:27:48.263Z,12.85
2022-12-14T13:30:25.457Z,12.63
2022-12-14T13:33:25.350Z,15.07
2022-12-14T13:36:16.346Z,10.80
2022-12-14T13:39:03.621Z,11.05
2022-12-14T13:42:06.801Z,12.00
2022-12-14T13:45:01.886Z,10.82
2022-12-14T13:47:37.076Z,10.30
2022-12-14T13:50:46.362Z,10.55
2022-12-14T13:53:01.410Z,10.38
2022-12-14T13:55:40.283Z,10.88
2022-12-14T13:58:18.599Z,10.77
2022-12-14T14:00:45.694Z,11.43
2022-12-14T14:06:19.872Z,12.20
2022-12-14T14:08:49.551Z,11.68
2022-12-14T14:11:36.788Z,12.05
2022-12-14T14:14:18.485Z,12.82
2022-12-14T14:16:50.161Z,12.75
2022-12-14T14:19:26.341Z,14.02
2022-12-14T14:22:25.156Z,13.73
2022-12-14T14:24:55.514Z,12.93
2022-12-14T14:27:36.552Z,13.63
2022-12-14T14:30:23.165Z,13.80
2022-12-14T14:32:54.076Z,13.23
2022-12-14T14:35:23.990Z,13.75
2022-12-14T14:38:00.096Z,14.13
2022-12-14T14:41:06.574Z,14.25
2022-12-14T14:43:27.604Z,13.68
2022-12-14T14:45:57.962Z,15.02
2022-12-14T14:48:52.918Z,14.05
2022-12-14T14:51:26.522Z,14.70
2022-12-14T14:54:46.277Z,15.13
2022-12-14T14:57:43.537Z,14.40
2022-12-14T15:00:11.095Z,11.95
2022-12-14T15:02:42.644Z,11.70
2022-12-14T15:08:24.005Z,11.38
2022-12-14T15:10:51.956Z,11.32
2022-12-14T15:13:27.361Z,10.65
2022-12-14T15:15:57.612Z,10.32
2022-12-14T15:18:27.428Z,9.95
2022-12-14T15:21:05.375Z,10.52
2022-12-14T15:23:36.775Z,9.00
2022-12-14T15:26:16.238Z,9.10
2022-12-14T15:28:47.594Z,7.97
2022-12-14T15:31:14.914Z,8.65
2022-12-14T15:33:43.932Z,8.88
2022-12-14T15:36:19.319Z,9.02
2022-12-14T15:38:54.524Z,8.80
2022-12-14T15:41:24.446Z,8.07
2022-12-14T15:43:55.054Z,8.50
2022-12-14T15:46:35.806Z,6.72
2022-12-14T15:49:13.309Z,7.03
2022-12-14T15:51:44.071Z,7.50
2022-12-14T15:54:25.071Z,6.80
2022-12-14T15:56:56.288Z,6.65
2022-12-14T15:59:31.214Z,7.40
2022-12-14T16:02:22.231Z,6.88
2022-12-14T16:04:49.702Z,7.13
2022-12-14T16:07:18.063Z,6.60
2022-12-14T16:09:50.022Z,7.32
2022-12-14T16:12:39.578Z,6.72
2022-12-14T16:15:24.131Z,5.97
2022-12-14T16:20:33.852Z,7.03
2022-12-14T16:23:28.259Z,6.65
2022-12-14T16:26:20.487Z,7.32
2022-12-14T16:28:48.071Z,6.95
2022-12-14T16:31:19.725Z,7.60
2022-12-14T16:34:02.894Z,7.80
2022-12-14T16:36:32.235Z,7.97
2022-12-14T16:39:03.120Z,9.32
2022-12-14T16:41:44.160Z,13.05
2022-12-14T16:44:30.377Z,14.68
2022-12-14T16:47:03.305Z,16.90
2022-12-14T16:49:41.872Z,18.45
2022-12-14T16:52:26.905Z,19.27
2022-12-14T16:55:18.042Z,18.77
2022-12-14T16:57:48.024Z,19.60
2022-12-14T17:00:27.302Z,19.17
2022-12-14T17:03:00.759Z,20.50
2022-12-14T17:05:37.312Z,19.30
2022-12-14T17:08:05.665Z,19.33
2022-12-14T17:10:33.511Z,19.35
2022-12-14T17:13:02.126Z,19.63
2022-12-14T17:15:34.405Z,18.65
2022-12-14T17:18:04.356Z,18.98
2022-12-14T17:20:36.489Z,18.80
2022-12-14T17:23:04.452Z,18.77
2022-12-14T17:25:32.457Z,20.38
2022-12-14T17:28:00.221Z,19.73
2022-12-14T17:30:27.407Z,18.92
2022-12-14T17:35:28.764Z,19.02
2022-12-14T17:37:56.020Z,19.67
2022-12-14T17:42:56.131Z,18.25
2022-12-14T17:45:28.226Z,18.35
2022-12-14T17:47:55.142Z,20.15
2022-12-14T17:50:23.329Z,19.60
2022-12-14T17:52:50.512Z,18.67
2022-12-14T17:57:46.245Z,20.63
2022-12-14T18:00:41.779Z,20.30
2022-12-14T18:03:10.754Z,20.30
2022-12-14T18:05:42.159Z,20.90
2022-12-14T18:08:12.383Z,21.35
2022-12-14T18:10:39.264Z,21.25
2022-12-14T18:13:06.055Z,21.63
2022-12-14T18:15:39.263Z,22.05
2022-12-14T18:18:06.540Z,22.52
2022-12-14T18:23:00.245Z,21.35
2022-12-14T18:25:31.791Z,23.27
2022-12-14T18:28:04.418Z,21.55
2022-12-14T18:30:39.458Z,23.55
2022-12-14T18:33:23.779Z,24.02
2022-12-14T18:35:51.756Z,23.50
2022-12-14T18:38:18.917Z,23.63
2022-12-14T18:43:23.567Z,22.85
2022-12-14T18:48:18.025Z,23.73
2022-12-14T18:50:44.815Z,23.65
2022-12-14T18:53:16.525Z,25.70
2022-12-14T18:55:43.538Z,20.30
2022-12-14T18:58:22.844Z,25.58
2022-12-14T19:00:54.825Z,24.23
2022-12-14T19:03:22.753Z,23.50
2022-12-14T19:05:49.756Z,19.02
2022-12-14T19:08:16.922Z,19.77
2022-12-14T19:13:25.088Z,17.73
2022-12-14T19:15:53.007Z,19.67
2022-12-14T19:20:49.607Z,23.60
2022-12-14T19:23:18.502Z,24.50
2022-12-14T19:25:46.426Z,24.85
2022-12-14T19:28:31.922Z,25.40
2022-12-14T19:30:59.522Z,24.95
2022-12-14T19:33:27.161Z,26.58
2022-12-14T19:35:54.245Z,26.17
2022-12-14T19:38:21.369Z,26.95
2022-12-14T19:43:25.662Z,26.75
2022-12-14T19:45:52.418Z,26.25
2022-12-14T19:48:19.498Z,25.67
2022-12-14T19:50:49.252Z,26.63
2022-12-14T19:53:21.583Z,25.70
2022-12-14T19:55:52.697Z,27.88
2022-12-14T19:58:22.140Z,27.55
2022-12-14T20:00:50.223Z,28.30
2022-12-14T20:03:17.743Z,26.77
2022-12-14T20:05:55.964Z,28.75
2022-12-14T20:08:23.566Z,29.45
2022-12-14T20:10:52.994Z,27.90
2022-12-14T20:13:21.624Z,28.10
2022-12-14T20:15:53.916Z,28.60
2022-12-14T20:18:22.541Z,29.40
2022-12-14T20:20:50.291Z,25.45
2022-12-14T20:23:18.402Z,23.70
2022-12-14T20:25:45.194Z,20.42
2022-12-14T20:28:12.303Z,18.58
2022-12-14T20:33:10.196Z,14.95
2022-12-14T20:35:37.020Z,14.07
2022-12-14T20:38:03.747Z,11.75
2022-12-14T20:40:37.784Z,11.55
2022-12-14T20:43:05.574Z,10.65
2022-12-14T20:45:36.642Z,11.25
2022-12-14T20:48:03.493Z,9.25
2022-12-14T20:50:30.216Z,9.60
2022-12-14T20:52:57.496Z,11.60
2022-12-14T20:57:50.962Z,12.43
2022-12-14T21:00:17.949Z,12.88
2022-12-14T21:02:44.882Z,12.70
2022-12-14T21:05:11.793Z,13.98
2022-12-14T21:07:38.790Z,14.10
2022-12-14T21:10:06.917Z,13.15
2022-12-14T21:12:34.684Z,15.77
2022-12-14T21:15:01.618Z,13.38
2022-12-14T21:17:30.324Z,12.55
2022-12-14T21:19:57.906Z,11.68
2022-12-14T21:22:28.512Z,12.02
2022-12-14T21:25:04.873Z,11.40
2022-12-14T21:27:34.489Z,12.05
2022-12-14T21:30:01.577Z,10.27
2022-12-14T21:34:55.111Z,11.52
2022-12-14T21:37:22.283Z,12.25
2022-12-14T21:42:25.333Z,11.65
2022-12-14T21:44:53.639Z,11.18
2022-12-14T21:47:30.100Z,11.32
2022-12-14T21:49:57.779Z,11.55
2022-12-14T21:52:27.278Z,10.77
2022-12-14T21:54:54.614Z,11.40
2022-12-14T21:57:49.524Z,11.05
2022-12-14T22:00:18.037Z,10.85
2022-12-14T22:02:45.315Z,10.25
2022-12-14T22:05:13.102Z,10.55
2022-12-14T22:07:39.981Z,11.10
2022-12-14T22:10:07.047Z,10.38
2022-12-14T22:12:33.878Z,11.73
2022-12-14T22:15:01.562Z,11.15
2022-12-14T22:17:28.379Z,11.38
2022-12-14T22:19:55.344Z,12.23
2022-12-14T22:24:51.034Z,11.85
2022-12-14T22:27:18.486Z,12.80
2022-12-14T22:29:45.335Z,11.73
2022-12-14T22:32:12.813Z,13.38
2022-12-14T22:34:39.749Z,14.05
2022-12-14T22:37:06.544Z,13.32
2022-12-14T22:39:33.413Z,13.75
2022-12-14T22:42:00.370Z,13.93
2022-12-14T22:44:27.269Z,13.32
2022-12-14T22:46:54.228Z,13.68
2022-12-14T22:49:21.174Z,13.38
2022-12-14T22:51:48.244Z,14.82
2022-12-14T22:54:27.893Z,13.40
2022-12-14T22:56:57.822Z,14.07
2022-12-14T22:59:34.785Z,12.75
2022-12-14T23:02:01.792Z,13.43
2022-12-14T23:04:29.222Z,14.95
2022-12-14T23:06:56.079Z,14.05
2022-12-14T23:09:41.593Z,14.93
2022-12-14T23:12:27.014Z,14.68
2022-12-14T23:15:12.074Z,15.40
2022-12-14T23:17:57.621Z,16.73
2022-12-14T23:20:43.003Z,13.90
2022-12-14T23:23:28.929Z,15.38
2022-12-14T23:28:59.792Z,20.63
2022-12-14T23:31:45.343Z,21.35
2022-12-14T23:34:30.852Z,19.85
2022-12-14T23:37:20.161Z,23.20
2022-12-14T23:40:06.422Z,22.58
2022-12-14T23:42:51.735Z,22.23
2022-12-14T23:45:37.227Z,22.05
2022-12-14T23:48:22.769Z,23.48
2022-12-14T23:51:08.251Z,22.08
2022-12-14T23:53:53.875Z,17.60
2022-12-14T23:56:39.319Z,17.27
2022-12-14T23:59:29.733Z,17.40
